sensor_id;sensor_type;location;lat;lon;timestamp;temperature;humidity
52285;DHT22;38238;53.304;6.606;2023-02-22T00:00:50;8.50;99.90
52285;DHT22;38238;53.304;6.606;2023-02-22T00:03:22;8.50;99.90
52285;DHT22;38238;53.304;6.606;2023-02-22T00:05:52;8.80;99.90
52285;DHT22;38238;53.304;6.606;2023-02-22T00:08:21;9.20;99.90
52285;DHT22;38238;53.304;6.606;2023-02-22T00:10:48;9.10;99.90
52285;DHT22;38238;53.304;6.606;2023-02-22T00:13:18;8.90;99.90
52285;DHT22;38238;53.304;6.606;2023-02-22T00:15:44;8.40;99.90
52285;DHT22;38238;53.304;6.606;2023-02-22T00:18:15;8.40;99.90
52285;DHT22;38238;53.304;6.606;2023-02-22T00:20:42;8.40;99.90
52285;DHT22;38238;53.304;6.606;2023-02-22T00:23:13;8.40;99.90
52285;DHT22;38238;53.304;6.606;2023-02-22T00:25:39;8.50;99.90
52285;DHT22;38238;53.304;6.606;2023-02-22T00:28:05;8.40;99.90
52285;DHT22;38238;53.304;6.606;2023-02-22T00:30:31;8.40;99.90
52285;DHT22;38238;53.304;6.606;2023-02-22T00:32:59;8.40;99.90
52285;DHT22;38238;53.304;6.606;2023-02-22T00:35:28;8.40;99.90
52285;DHT22;38238;53.304;6.606;2023-02-22T00:37:57;8.40;99.90
52285;DHT22;38238;53.304;6.606;2023-02-22T00:40:26;8.40;99.90
52285;DHT22;38238;53.304;6.606;2023-02-22T00:42:52;8.40;99.90
52285;DHT22;38238;53.304;6.606;2023-02-22T00:45:20;8.40;99.90
52285;DHT22;38238;53.304;6.606;2023-02-22T00:47:46;8.40;99.90
52285;DHT22;38238;53.304;6.606;2023-02-22T00:50:13;8.40;99.90
52285;DHT22;38238;53.304;6.606;2023-02-22T00:52:39;8.40;99.90
52285;DHT22;38238;53.304;6.606;2023-02-22T00:55:07;8.40;99.90
52285;DHT22;38238;53.304;6.606;2023-02-22T00:57:33;8.30;99.90
52285;DHT22;38238;53.304;6.606;2023-02-22T01:00:04;8.70;99.90
52285;DHT22;38238;53.304;6.606;2023-02-22T01:02:40;8.30;99.90
52285;DHT22;38238;53.304;6.606;2023-02-22T01:05:08;9.10;99.90
52285;DHT22;38238;53.304;6.606;2023-02-22T01:07:34;8.40;99.90
52285;DHT22;38238;53.304;6.606;2023-02-22T01:10:01;8.40;99.90
52285;DHT22;38238;53.304;6.606;2023-02-22T01:12:28;8.40;99.90
52285;DHT22;38238;53.304;6.606;2023-02-22T01:14:54;8.60;99.90
52285;DHT22;38238;53.304;6.606;2023-02-22T01:17:23;8.40;99.90
52285;DHT22;38238;53.304;6.606;2023-02-22T01:19:50;8.30;99.90
52285;DHT22;38238;53.304;6.606;2023-02-22T01:22:16;8.30;99.90
52285;DHT22;38238;53.304;6.606;2023-02-22T01:24:42;8.30;99.90
52285;DHT22;38238;53.304;6.606;2023-02-22T01:27:08;8.40;99.90
52285;DHT22;38238;53.304;6.606;2023-02-22T01:29:35;8.30;99.90
52285;DHT22;38238;53.304;6.606;2023-02-22T01:32:01;8.90;99.90
52285;DHT22;38238;53.304;6.606;2023-02-22T01:34:27;8.50;99.90
52285;DHT22;38238;53.304;6.606;2023-02-22T01:36:54;8.50;99.90
52285;DHT22;38238;53.304;6.606;2023-02-22T01:39:21;8.30;99.90
52285;DHT22;38238;53.304;6.606;2023-02-22T01:41:46;8.30;99.90
52285;DHT22;38238;53.304;6.606;2023-02-22T01:44:38;8.30;99.90
52285;DHT22;38238;53.304;6.606;2023-02-22T01:47:06;8.30;99.90
52285;DHT22;38238;53.304;6.606;2023-02-22T01:49:38;8.30;99.90
52285;DHT22;38238;53.304;6.606;2023-02-22T01:52:09;8.30;99.90
52285;DHT22;38238;53.304;6.606;2023-02-22T01:54:43;8.30;99.90
52285;DHT22;38238;53.304;6.606;2023-02-22T01:57:30;8.60;99.90
52285;DHT22;38238;53.304;6.606;2023-02-22T02:00:02;8.40;99.90
52285;DHT22;38238;53.304;6.606;2023-02-22T02:02:37;8.70;99.90
52285;DHT22;38238;53.304;6.606;2023-02-22T02:05:07;8.30;99.90
52285;DHT22;38238;53.304;6.606;2023-02-22T02:07:35;8.70;99.90
52285;DHT22;38238;53.304;6.606;2023-02-22T02:10:08;8.30;99.90
52285;DHT22;38238;53.304;6.606;2023-02-22T02:12:44;8.30;99.90
52285;DHT22;38238;53.304;6.606;2023-02-22T02:15:23;8.30;99.90
52285;DHT22;38238;53.304;6.606;2023-02-22T02:17:52;8.30;99.90
52285;DHT22;38238;53.304;6.606;2023-02-22T02:33:24;8.20;99.90
52285;DHT22;38238;53.304;6.606;2023-02-22T02:36:10;8.20;99.90
52285;DHT22;38238;53.304;6.606;2023-02-22T02:41:28;8.20;99.90
52285;DHT22;38238;53.304;6.606;2023-02-22T02:44:03;8.20;99.90
52285;DHT22;38238;53.304;6.606;2023-02-22T02:49:10;8.20;99.90
52285;DHT22;38238;53.304;6.606;2023-02-22T02:51:40;8.20;99.90
52285;DHT22;38238;53.304;6.606;2023-02-22T02:54:07;8.20;99.90
52285;DHT22;38238;53.304;6.606;2023-02-22T02:56:34;8.20;99.90
52285;DHT22;38238;53.304;6.606;2023-02-22T02:58:59;8.20;99.90
52285;DHT22;38238;53.304;6.606;2023-02-22T03:01:48;8.20;99.90
52285;DHT22;38238;53.304;6.606;2023-02-22T03:04:26;8.20;99.90
52285;DHT22;38238;53.304;6.606;2023-02-22T03:12:59;8.20;99.90
52285;DHT22;38238;53.304;6.606;2023-02-22T03:15:35;8.20;99.90
52285;DHT22;38238;53.304;6.606;2023-02-22T03:21:12;8.20;99.90
52285;DHT22;38238;53.304;6.606;2023-02-22T03:27:22;8.20;99.90
52285;DHT22;38238;53.304;6.606;2023-02-22T03:29:30;8.20;99.90
52285;DHT22;38238;53.304;6.606;2023-02-22T03:32:01;8.20;99.90
52285;DHT22;38238;53.304;6.606;2023-02-22T03:34:41;8.20;99.90
52285;DHT22;38238;53.304;6.606;2023-02-22T03:39:39;8.20;99.90
52285;DHT22;38238;53.304;6.606;2023-02-22T03:42:13;8.20;99.90
52285;DHT22;38238;53.304;6.606;2023-02-22T03:44:40;8.40;99.90
52285;DHT22;38238;53.304;6.606;2023-02-22T03:47:15;8.20;99.90
52285;DHT22;38238;53.304;6.606;2023-02-22T03:49:56;8.20;99.90
52285;DHT22;38238;53.304;6.606;2023-02-22T03:52:23;8.90;99.90
52285;DHT22;38238;53.304;6.606;2023-02-22T03:54:52;8.20;99.90
52285;DHT22;38238;53.304;6.606;2023-02-22T03:57:25;8.20;99.90
52285;DHT22;38238;53.304;6.606;2023-02-22T03:59:52;8.20;99.90
52285;DHT22;38238;53.304;6.606;2023-02-22T04:02:18;8.20;99.90
52285;DHT22;38238;53.304;6.606;2023-02-22T04:04:47;8.40;99.90
52285;DHT22;38238;53.304;6.606;2023-02-22T04:07:13;8.20;99.90
52285;DHT22;38238;53.304;6.606;2023-02-22T04:09:39;8.10;99.90
52285;DHT22;38238;53.304;6.606;2023-02-22T04:12:05;8.30;99.90
52285;DHT22;38238;53.304;6.606;2023-02-22T04:14:30;8.10;99.90
52285;DHT22;38238;53.304;6.606;2023-02-22T04:16:56;8.10;99.90
52285;DHT22;38238;53.304;6.606;2023-02-22T04:19:21;8.10;99.90
52285;DHT22;38238;53.304;6.606;2023-02-22T04:21:47;8.10;99.90
52285;DHT22;38238;53.304;6.606;2023-02-22T04:24:13;8.10;99.90
52285;DHT22;38238;53.304;6.606;2023-02-22T04:26:39;8.10;99.90
52285;DHT22;38238;53.304;6.606;2023-02-22T04:29:05;8.10;99.90
52285;DHT22;38238;53.304;6.606;2023-02-22T04:31:31;8.10;99.90
52285;DHT22;38238;53.304;6.606;2023-02-22T04:33:58;8.10;99.90
52285;DHT22;38238;53.304;6.606;2023-02-22T04:36:24;8.10;99.90
52285;DHT22;38238;53.304;6.606;2023-02-22T04:38:52;8.10;99.90
52285;DHT22;38238;53.304;6.606;2023-02-22T04:41:18;8.10;99.90
52285;DHT22;38238;53.304;6.606;2023-02-22T04:43:45;8.10;99.90
52285;DHT22;38238;53.304;6.606;2023-02-22T04:46:11;8.10;99.90
52285;DHT22;38238;53.304;6.606;2023-02-22T04:48:37;8.10;99.90
52285;DHT22;38238;53.304;6.606;2023-02-22T04:51:04;8.10;99.90
52285;DHT22;38238;53.304;6.606;2023-02-22T04:53:30;8.10;99.90
52285;DHT22;38238;53.304;6.606;2023-02-22T04:55:55;8.10;99.90
52285;DHT22;38238;53.304;6.606;2023-02-22T04:58:21;8.10;99.90
52285;DHT22;38238;53.304;6.606;2023-02-22T05:00:47;8.00;99.90
52285;DHT22;38238;53.304;6.606;2023-02-22T05:03:13;8.00;99.90
52285;DHT22;38238;53.304;6.606;2023-02-22T05:05:39;8.00;99.90
52285;DHT22;38238;53.304;6.606;2023-02-22T05:08:04;8.00;99.90
52285;DHT22;38238;53.304;6.606;2023-02-22T05:10:30;8.00;99.90
52285;DHT22;38238;53.304;6.606;2023-02-22T05:12:55;8.00;99.90
52285;DHT22;38238;53.304;6.606;2023-02-22T05:15:22;8.10;99.90
52285;DHT22;38238;53.304;6.606;2023-02-22T05:17:50;8.00;99.90
52285;DHT22;38238;53.304;6.606;2023-02-22T05:20:29;8.90;99.90
52285;DHT22;38238;53.304;6.606;2023-02-22T05:22:55;8.00;99.90
52285;DHT22;38238;53.304;6.606;2023-02-22T05:25:21;8.00;99.90
52285;DHT22;38238;53.304;6.606;2023-02-22T05:27:51;8.00;99.90
52285;DHT22;38238;53.304;6.606;2023-02-22T05:30:18;8.20;99.90
52285;DHT22;38238;53.304;6.606;2023-02-22T05:32:44;8.00;99.90
52285;DHT22;38238;53.304;6.606;2023-02-22T05:35:10;8.00;99.90
52285;DHT22;38238;53.304;6.606;2023-02-22T05:37:36;7.90;99.90
52285;DHT22;38238;53.304;6.606;2023-02-22T05:40:02;7.90;99.90
52285;DHT22;38238;53.304;6.606;2023-02-22T05:42:28;7.90;99.90
52285;DHT22;38238;53.304;6.606;2023-02-22T05:44:53;8.80;99.90
52285;DHT22;38238;53.304;6.606;2023-02-22T05:47:19;8.00;99.90
52285;DHT22;38238;53.304;6.606;2023-02-22T05:49:45;7.90;99.90
52285;DHT22;38238;53.304;6.606;2023-02-22T05:52:10;8.00;99.90
52285;DHT22;38238;53.304;6.606;2023-02-22T05:54:36;7.90;99.90
52285;DHT22;38238;53.304;6.606;2023-02-22T05:57:02;7.90;99.90
52285;DHT22;38238;53.304;6.606;2023-02-22T05:59:27;7.90;99.90
52285;DHT22;38238;53.304;6.606;2023-02-22T06:01:54;8.00;99.90
52285;DHT22;38238;53.304;6.606;2023-02-22T06:04:20;7.90;99.90
52285;DHT22;38238;53.304;6.606;2023-02-22T06:06:45;7.90;99.90
52285;DHT22;38238;53.304;6.606;2023-02-22T06:09:11;7.90;99.90
52285;DHT22;38238;53.304;6.606;2023-02-22T06:11:37;7.90;99.90
52285;DHT22;38238;53.304;6.606;2023-02-22T06:14:02;8.10;99.90
52285;DHT22;38238;53.304;6.606;2023-02-22T06:16:28;7.90;99.90
52285;DHT22;38238;53.304;6.606;2023-02-22T06:18:56;7.90;99.90
52285;DHT22;38238;53.304;6.606;2023-02-22T06:21:22;7.90;99.90
52285;DHT22;38238;53.304;6.606;2023-02-22T06:23:48;8.00;99.90
52285;DHT22;38238;53.304;6.606;2023-02-22T06:26:17;7.90;99.90
52285;DHT22;38238;53.304;6.606;2023-02-22T06:28:45;7.90;99.90
52285;DHT22;38238;53.304;6.606;2023-02-22T06:31:11;7.90;99.90
52285;DHT22;38238;53.304;6.606;2023-02-22T06:33:37;7.90;99.90
52285;DHT22;38238;53.304;6.606;2023-02-22T06:36:03;6.40;99.90
52285;DHT22;38238;53.304;6.606;2023-02-22T06:38:30;7.90;99.90
52285;DHT22;38238;53.304;6.606;2023-02-22T06:40:56;7.90;99.90
52285;DHT22;38238;53.304;6.606;2023-02-22T06:43:22;7.80;99.90
52285;DHT22;38238;53.304;6.606;2023-02-22T06:45:49;7.90;99.90
52285;DHT22;38238;53.304;6.606;2023-02-22T06:48:15;7.80;99.90
52285;DHT22;38238;53.304;6.606;2023-02-22T06:50:41;8.10;99.90
52285;DHT22;38238;53.304;6.606;2023-02-22T06:53:07;7.80;99.90
52285;DHT22;38238;53.304;6.606;2023-02-22T06:55:34;8.00;99.90
52285;DHT22;38238;53.304;6.606;2023-02-22T06:58:00;8.40;99.90
52285;DHT22;38238;53.304;6.606;2023-02-22T07:00:28;7.80;99.90
52285;DHT22;38238;53.304;6.606;2023-02-22T07:02:55;7.80;99.90
52285;DHT22;38238;53.304;6.606;2023-02-22T07:05:22;7.80;99.90
52285;DHT22;38238;53.304;6.606;2023-02-22T07:07:49;7.70;99.90
52285;DHT22;38238;53.304;6.606;2023-02-22T07:10:23;7.80;99.90
52285;DHT22;38238;53.304;6.606;2023-02-22T07:12:49;8.00;99.90
52285;DHT22;38238;53.304;6.606;2023-02-22T07:15:18;7.70;99.90
52285;DHT22;38238;53.304;6.606;2023-02-22T07:17:46;7.70;99.90
52285;DHT22;38238;53.304;6.606;2023-02-22T07:20:11;8.50;99.90
52285;DHT22;38238;53.304;6.606;2023-02-22T07:22:37;7.70;99.90
52285;DHT22;38238;53.304;6.606;2023-02-22T07:25:05;8.60;99.90
52285;DHT22;38238;53.304;6.606;2023-02-22T07:27:31;7.70;99.90
52285;DHT22;38238;53.304;6.606;2023-02-22T07:29:56;7.70;99.90
52285;DHT22;38238;53.304;6.606;2023-02-22T07:32:22;7.70;99.90
52285;DHT22;38238;53.304;6.606;2023-02-22T07:34:48;7.70;99.90
52285;DHT22;38238;53.304;6.606;2023-02-22T07:37:13;7.90;99.90
52285;DHT22;38238;53.304;6.606;2023-02-22T07:39:39;7.70;99.90
52285;DHT22;38238;53.304;6.606;2023-02-22T07:42:08;8.00;99.90
52285;DHT22;38238;53.304;6.606;2023-02-22T07:44:34;7.70;99.90
52285;DHT22;38238;53.304;6.606;2023-02-22T07:46:59;7.70;99.90
52285;DHT22;38238;53.304;6.606;2023-02-22T07:49:27;8.00;99.90
52285;DHT22;38238;53.304;6.606;2023-02-22T07:51:52;7.70;99.90
52285;DHT22;38238;53.304;6.606;2023-02-22T07:54:18;7.70;99.90
52285;DHT22;38238;53.304;6.606;2023-02-22T07:56:45;7.70;99.90
52285;DHT22;38238;53.304;6.606;2023-02-22T07:59:12;7.90;99.90
52285;DHT22;38238;53.304;6.606;2023-02-22T08:01:37;7.70;99.90
52285;DHT22;38238;53.304;6.606;2023-02-22T08:04:03;7.70;99.90
52285;DHT22;38238;53.304;6.606;2023-02-22T08:06:29;7.70;99.90
52285;DHT22;38238;53.304;6.606;2023-02-22T08:08:56;7.70;99.90
52285;DHT22;38238;53.304;6.606;2023-02-22T08:11:23;7.70;99.90
52285;DHT22;38238;53.304;6.606;2023-02-22T08:13:49;7.70;99.90
52285;DHT22;38238;53.304;6.606;2023-02-22T08:16:14;7.80;99.90
52285;DHT22;38238;53.304;6.606;2023-02-22T08:18:40;8.00;99.90
52285;DHT22;38238;53.304;6.606;2023-02-22T08:21:06;7.80;99.90
52285;DHT22;38238;53.304;6.606;2023-02-22T08:23:32;7.80;99.90
52285;DHT22;38238;53.304;6.606;2023-02-22T08:26:07;8.30;99.90
52285;DHT22;38238;53.304;6.606;2023-02-22T08:28:34;7.90;99.90
52285;DHT22;38238;53.304;6.606;2023-02-22T08:30:59;8.10;99.90
52285;DHT22;38238;53.304;6.606;2023-02-22T08:33:25;7.90;99.90
52285;DHT22;38238;53.304;6.606;2023-02-22T08:35:51;8.00;99.90
52285;DHT22;38238;53.304;6.606;2023-02-22T08:38:24;9.40;99.90
52285;DHT22;38238;53.304;6.606;2023-02-22T08:40:50;8.00;99.90
52285;DHT22;38238;53.304;6.606;2023-02-22T08:43:17;8.30;99.90
52285;DHT22;38238;53.304;6.606;2023-02-22T08:45:44;8.40;99.90
52285;DHT22;38238;53.304;6.606;2023-02-22T08:48:10;8.10;99.90
52285;DHT22;38238;53.304;6.606;2023-02-22T08:50:36;8.10;99.90
52285;DHT22;38238;53.304;6.606;2023-02-22T08:53:04;8.30;99.90
52285;DHT22;38238;53.304;6.606;2023-02-22T08:55:34;8.20;99.90
52285;DHT22;38238;53.304;6.606;2023-02-22T08:58:00;8.30;99.90
52285;DHT22;38238;53.304;6.606;2023-02-22T09:00:28;9.20;99.90
52285;DHT22;38238;53.304;6.606;2023-02-22T09:03:00;8.20;99.90
52285;DHT22;38238;53.304;6.606;2023-02-22T09:05:28;8.20;99.90
52285;DHT22;38238;53.304;6.606;2023-02-22T09:07:53;8.50;99.90
52285;DHT22;38238;53.304;6.606;2023-02-22T09:10:25;8.20;99.90
52285;DHT22;38238;53.304;6.606;2023-02-22T09:12:52;8.20;99.90
52285;DHT22;38238;53.304;6.606;2023-02-22T09:15:20;8.20;99.90
52285;DHT22;38238;53.304;6.606;2023-02-22T09:17:47;8.20;99.90
52285;DHT22;38238;53.304;6.606;2023-02-22T09:20:13;8.20;99.90
52285;DHT22;38238;53.304;6.606;2023-02-22T09:22:44;8.20;99.90
52285;DHT22;38238;53.304;6.606;2023-02-22T09:25:10;8.20;99.90
52285;DHT22;38238;53.304;6.606;2023-02-22T09:27:36;8.20;99.90
52285;DHT22;38238;53.304;6.606;2023-02-22T09:30:03;8.30;99.90
52285;DHT22;38238;53.304;6.606;2023-02-22T09:32:29;8.30;99.90
52285;DHT22;38238;53.304;6.606;2023-02-22T09:34:55;8.30;99.90
52285;DHT22;38238;53.304;6.606;2023-02-22T09:37:22;8.30;99.90
52285;DHT22;38238;53.304;6.606;2023-02-22T09:39:47;9.20;99.90
52285;DHT22;38238;53.304;6.606;2023-02-22T09:42:30;8.30;99.90
52285;DHT22;38238;53.304;6.606;2023-02-22T09:45:20;8.40;99.90
52285;DHT22;38238;53.304;6.606;2023-02-22T09:47:54;8.40;99.90
52285;DHT22;38238;53.304;6.606;2023-02-22T09:50:24;8.40;99.90
52285;DHT22;38238;53.304;6.606;2023-02-22T09:53:01;8.40;99.90
52285;DHT22;38238;53.304;6.606;2023-02-22T09:55:41;8.40;99.90
52285;DHT22;38238;53.304;6.606;2023-02-22T09:58:29;8.40;99.90
52285;DHT22;38238;53.304;6.606;2023-02-22T10:01:31;7.00;99.90
52285;DHT22;38238;53.304;6.606;2023-02-22T10:04:18;8.40;99.90
52285;DHT22;38238;53.304;6.606;2023-02-22T10:09:25;8.40;99.90
52285;DHT22;38238;53.304;6.606;2023-02-22T10:19:50;8.40;99.90
52285;DHT22;38238;53.304;6.606;2023-02-22T10:27:34;8.40;99.90
52285;DHT22;38238;53.304;6.606;2023-02-22T10:32:38;8.40;99.90
52285;DHT22;38238;53.304;6.606;2023-02-22T10:35:34;8.40;99.90
52285;DHT22;38238;53.304;6.606;2023-02-22T10:38:19;8.40;99.90
52285;DHT22;38238;53.304;6.606;2023-02-22T10:41:02;8.50;99.90
52285;DHT22;38238;53.304;6.606;2023-02-22T10:43:29;8.50;99.90
52285;DHT22;38238;53.304;6.606;2023-02-22T10:46:01;8.50;99.90
52285;DHT22;38238;53.304;6.606;2023-02-22T10:48:30;8.50;99.90
52285;DHT22;38238;53.304;6.606;2023-02-22T10:50:59;8.70;99.90
52285;DHT22;38238;53.304;6.606;2023-02-22T10:53:27;8.60;99.90
52285;DHT22;38238;53.304;6.606;2023-02-22T11:01:39;8.60;99.90
52285;DHT22;38238;53.304;6.606;2023-02-22T11:04:42;8.60;99.90
52285;DHT22;38238;53.304;6.606;2023-02-22T11:07:33;8.60;99.90
52285;DHT22;38238;53.304;6.606;2023-02-22T11:10:07;8.70;99.90
52285;DHT22;38238;53.304;6.606;2023-02-22T11:12:39;8.70;99.90
52285;DHT22;38238;53.304;6.606;2023-02-22T11:15:26;8.80;99.90
52285;DHT22;38238;53.304;6.606;2023-02-22T11:17:55;8.90;99.90
52285;DHT22;38238;53.304;6.606;2023-02-22T11:20:33;9.00;99.90
52285;DHT22;38238;53.304;6.606;2023-02-22T11:23:03;9.40;99.90
52285;DHT22;38238;53.304;6.606;2023-02-22T11:25:39;9.30;99.90
52285;DHT22;38238;53.304;6.606;2023-02-22T11:28:26;9.50;99.90
52285;DHT22;38238;53.304;6.606;2023-02-22T11:31:08;9.80;99.90
52285;DHT22;38238;53.304;6.606;2023-02-22T11:33:35;9.90;99.90
52285;DHT22;38238;53.304;6.606;2023-02-22T11:36:03;10.10;99.90
52285;DHT22;38238;53.304;6.606;2023-02-22T11:38:53;10.20;99.90
52285;DHT22;38238;53.304;6.606;2023-02-22T11:41:30;10.20;99.90
52285;DHT22;38238;53.304;6.606;2023-02-22T11:44:19;10.10;99.90
52285;DHT22;38238;53.304;6.606;2023-02-22T11:46:46;10.10;99.90
52285;DHT22;38238;53.304;6.606;2023-02-22T11:49:13;10.30;99.90
52285;DHT22;38238;53.304;6.606;2023-02-22T11:55:16;10.10;99.90
52285;DHT22;38238;53.304;6.606;2023-02-22T12:11:24;9.70;99.90
52285;DHT22;38238;53.304;6.606;2023-02-22T12:14:23;9.50;99.90
52285;DHT22;38238;53.304;6.606;2023-02-22T12:19:55;9.40;99.90
52285;DHT22;38238;53.304;6.606;2023-02-22T12:22:31;9.40;99.90
52285;DHT22;38238;53.304;6.606;2023-02-22T12:25:16;9.40;99.90
52285;DHT22;38238;53.304;6.606;2023-02-22T12:27:59;9.30;99.90
52285;DHT22;38238;53.304;6.606;2023-02-22T12:30:30;9.40;99.90
52285;DHT22;38238;53.304;6.606;2023-02-22T12:33:02;9.40;99.90
52285;DHT22;38238;53.304;6.606;2023-02-22T12:35:35;9.40;99.90
52285;DHT22;38238;53.304;6.606;2023-02-22T12:38:21;9.40;99.90
52285;DHT22;38238;53.304;6.606;2023-02-22T12:40:59;9.50;99.90
52285;DHT22;38238;53.304;6.606;2023-02-22T12:43:42;9.60;99.90
52285;DHT22;38238;53.304;6.606;2023-02-22T12:46:19;9.70;99.90
52285;DHT22;38238;53.304;6.606;2023-02-22T12:51:41;10.50;99.90
52285;DHT22;38238;53.304;6.606;2023-02-22T12:59:48;10.30;99.90
52285;DHT22;38238;53.304;6.606;2023-02-22T13:04:53;10.20;99.90
52285;DHT22;38238;53.304;6.606;2023-02-22T13:33:59;9.90;99.90
52285;DHT22;38238;53.304;6.606;2023-02-22T13:36:37;9.90;99.90
52285;DHT22;38238;53.304;6.606;2023-02-22T13:42:04;9.90;99.90
52285;DHT22;38238;53.304;6.606;2023-02-22T13:50:57;9.90;99.90
52285;DHT22;38238;53.304;6.606;2023-02-22T13:53:53;9.90;99.90
52285;DHT22;38238;53.304;6.606;2023-02-22T13:56:22;9.90;99.90
52285;DHT22;38238;53.304;6.606;2023-02-22T13:58:59;9.90;99.90
52285;DHT22;38238;53.304;6.606;2023-02-22T14:01:40;9.90;99.90
52285;DHT22;38238;53.304;6.606;2023-02-22T14:06:49;9.90;99.90
52285;DHT22;38238;53.304;6.606;2023-02-22T14:09:42;10.00;99.90
52285;DHT22;38238;53.304;6.606;2023-02-22T14:12:02;9.90;99.90
52285;DHT22;38238;53.304;6.606;2023-02-22T14:14:28;9.90;99.90
52285;DHT22;38238;53.304;6.606;2023-02-22T14:19:41;9.80;99.90
52285;DHT22;38238;53.304;6.606;2023-02-22T14:22:07;9.80;99.90
52285;DHT22;38238;53.304;6.606;2023-02-22T14:24:45;9.80;99.90
52285;DHT22;38238;53.304;6.606;2023-02-22T14:27:13;9.70;99.90
52285;DHT22;38238;53.304;6.606;2023-02-22T14:30:20;9.60;99.90
52285;DHT22;38238;53.304;6.606;2023-02-22T14:32:50;9.60;99.90
52285;DHT22;38238;53.304;6.606;2023-02-22T14:35:17;9.60;99.90
52285;DHT22;38238;53.304;6.606;2023-02-22T14:37:51;9.60;99.90
52285;DHT22;38238;53.304;6.606;2023-02-22T14:43:12;9.60;99.90
52285;DHT22;38238;53.304;6.606;2023-02-22T14:45:44;9.60;99.90
52285;DHT22;38238;53.304;6.606;2023-02-22T14:48:32;9.60;99.90
52285;DHT22;38238;53.304;6.606;2023-02-22T14:54:02;9.60;99.90
52285;DHT22;38238;53.304;6.606;2023-02-22T14:56:39;9.60;99.90
52285;DHT22;38238;53.304;6.606;2023-02-22T14:59:19;9.60;99.90
52285;DHT22;38238;53.304;6.606;2023-02-22T15:01:45;9.60;99.90
52285;DHT22;38238;53.304;6.606;2023-02-22T15:04:30;9.60;99.90
52285;DHT22;38238;53.304;6.606;2023-02-22T15:06:57;9.60;99.90
52285;DHT22;38238;53.304;6.606;2023-02-22T15:09:27;9.60;99.90
52285;DHT22;38238;53.304;6.606;2023-02-22T15:11:54;9.60;99.90
52285;DHT22;38238;53.304;6.606;2023-02-22T15:14:25;10.30;99.90
52285;DHT22;38238;53.304;6.606;2023-02-22T15:16:54;9.60;99.90
52285;DHT22;38238;53.304;6.606;2023-02-22T15:19:29;9.60;99.90
52285;DHT22;38238;53.304;6.606;2023-02-22T15:21:57;9.60;99.90
52285;DHT22;38238;53.304;6.606;2023-02-22T15:24:27;9.60;99.90
52285;DHT22;38238;53.304;6.606;2023-02-22T15:26:54;9.60;99.90
52285;DHT22;38238;53.304;6.606;2023-02-22T15:29:27;9.60;99.90
52285;DHT22;38238;53.304;6.606;2023-02-22T15:31:56;9.60;99.90
52285;DHT22;38238;53.304;6.606;2023-02-22T15:34:32;9.60;99.90
52285;DHT22;38238;53.304;6.606;2023-02-22T15:37:20;9.60;99.90
52285;DHT22;38238;53.304;6.606;2023-02-22T15:39:50;8.00;99.90
52285;DHT22;38238;53.304;6.606;2023-02-22T15:42:24;9.60;99.90
52285;DHT22;38238;53.304;6.606;2023-02-22T15:44:52;9.60;99.90
52285;DHT22;38238;53.304;6.606;2023-02-22T15:47:24;9.60;99.90
52285;DHT22;38238;53.304;6.606;2023-02-22T15:50:26;9.60;99.90
52285;DHT22;38238;53.304;6.606;2023-02-22T15:53:01;9.50;99.90
52285;DHT22;38238;53.304;6.606;2023-02-22T15:58:00;9.40;99.90
52285;DHT22;38238;53.304;6.606;2023-02-22T16:00:34;9.40;99.90
52285;DHT22;38238;53.304;6.606;2023-02-22T16:03:19;9.40;99.90
52285;DHT22;38238;53.304;6.606;2023-02-22T16:05:53;9.40;99.90
52285;DHT22;38238;53.304;6.606;2023-02-22T16:08:29;9.40;99.90
52285;DHT22;38238;53.304;6.606;2023-02-22T16:11:06;9.40;99.90
52285;DHT22;38238;53.304;6.606;2023-02-22T16:13:38;9.30;99.90
52285;DHT22;38238;53.304;6.606;2023-02-22T16:16:21;9.30;99.90
52285;DHT22;38238;53.304;6.606;2023-02-22T16:18:48;9.30;99.90
52285;DHT22;38238;53.304;6.606;2023-02-22T16:21:17;9.20;99.90
52285;DHT22;38238;53.304;6.606;2023-02-22T16:23:48;9.20;99.90
52285;DHT22;38238;53.304;6.606;2023-02-22T16:26:31;9.10;99.90
52285;DHT22;38238;53.304;6.606;2023-02-22T16:29:03;9.10;99.90
52285;DHT22;38238;53.304;6.606;2023-02-22T16:31:36;9.10;99.90
52285;DHT22;38238;53.304;6.606;2023-02-22T16:34:05;9.10;99.90
52285;DHT22;38238;53.304;6.606;2023-02-22T16:36:40;9.10;99.90
52285;DHT22;38238;53.304;6.606;2023-02-22T16:39:11;9.00;99.90
52285;DHT22;38238;53.304;6.606;2023-02-22T16:41:38;9.00;99.90
52285;DHT22;38238;53.304;6.606;2023-02-22T16:44:04;9.00;99.90
52285;DHT22;38238;53.304;6.606;2023-02-22T16:46:32;9.00;99.90
52285;DHT22;38238;53.304;6.606;2023-02-22T16:48:59;9.00;99.90
52285;DHT22;38238;53.304;6.606;2023-02-22T16:51:28;9.00;99.90
52285;DHT22;38238;53.304;6.606;2023-02-22T16:53:57;8.90;99.90
52285;DHT22;38238;53.304;6.606;2023-02-22T16:56:28;8.90;99.90
52285;DHT22;38238;53.304;6.606;2023-02-22T16:58:54;8.90;99.90
52285;DHT22;38238;53.304;6.606;2023-02-22T17:01:21;8.90;99.90
52285;DHT22;38238;53.304;6.606;2023-02-22T17:03:50;8.90;99.90
52285;DHT22;38238;53.304;6.606;2023-02-22T17:06:19;8.90;99.90
52285;DHT22;38238;53.304;6.606;2023-02-22T17:08:45;8.80;99.90
52285;DHT22;38238;53.304;6.606;2023-02-22T17:11:11;8.80;99.90
52285;DHT22;38238;53.304;6.606;2023-02-22T17:13:38;8.70;99.90
52285;DHT22;38238;53.304;6.606;2023-02-22T17:16:12;8.70;99.90
52285;DHT22;38238;53.304;6.606;2023-02-22T17:18:38;8.70;99.90
52285;DHT22;38238;53.304;6.606;2023-02-22T17:21:04;8.70;99.90
52285;DHT22;38238;53.304;6.606;2023-02-22T17:23:30;8.60;99.90
52285;DHT22;38238;53.304;6.606;2023-02-22T17:25:58;8.60;99.90
52285;DHT22;38238;53.304;6.606;2023-02-22T17:28:25;8.60;99.90
52285;DHT22;38238;53.304;6.606;2023-02-22T17:30:51;8.60;99.90
52285;DHT22;38238;53.304;6.606;2023-02-22T17:33:19;8.60;99.90
52285;DHT22;38238;53.304;6.606;2023-02-22T17:35:46;8.60;99.90
52285;DHT22;38238;53.304;6.606;2023-02-22T17:38:12;8.60;99.90
52285;DHT22;38238;53.304;6.606;2023-02-22T17:40:39;8.60;99.90
52285;DHT22;38238;53.304;6.606;2023-02-22T17:43:06;8.60;99.90
52285;DHT22;38238;53.304;6.606;2023-02-22T17:45:37;8.50;99.90
52285;DHT22;38238;53.304;6.606;2023-02-22T17:48:03;8.50;99.90
52285;DHT22;38238;53.304;6.606;2023-02-22T17:50:29;8.50;99.90
52285;DHT22;38238;53.304;6.606;2023-02-22T17:52:56;8.50;99.90
52285;DHT22;38238;53.304;6.606;2023-02-22T17:55:25;8.50;99.90
52285;DHT22;38238;53.304;6.606;2023-02-22T17:57:53;8.50;99.90
52285;DHT22;38238;53.304;6.606;2023-02-22T18:00:27;8.50;99.90
52285;DHT22;38238;53.304;6.606;2023-02-22T18:03:02;8.50;99.90
52285;DHT22;38238;53.304;6.606;2023-02-22T18:05:29;8.50;99.90
52285;DHT22;38238;53.304;6.606;2023-02-22T18:07:57;8.60;99.90
52285;DHT22;38238;53.304;6.606;2023-02-22T18:10:23;8.50;99.90
52285;DHT22;38238;53.304;6.606;2023-02-22T18:12:51;8.40;99.90
52285;DHT22;38238;53.304;6.606;2023-02-22T18:15:18;8.40;99.90
52285;DHT22;38238;53.304;6.606;2023-02-22T18:17:46;8.40;99.90
52285;DHT22;38238;53.304;6.606;2023-02-22T18:20:13;8.50;99.90
52285;DHT22;38238;53.304;6.606;2023-02-22T18:22:43;8.40;99.90